Evergreen, AL (36401)

4:10 PM CDT on July 22, 2018 (GMT -0500)
Middleton | | Change Station
Active Advisory: Severe Thunderstorm Watch

Elev 259 ft 31.42 °N, 87.04 °W | Updated 17 minutes ago

Clear
Clear
90 °F
Feels Like 101 °F
N
8
Wind Variable Wind from West

Today
High -- | Low -- °F
--% Chance of Precip.
Yesterday
High -- | Low -- °F
Precip. -- in
Pressure 29.76 in
Visibility 10.0 miles
Clouds Clear
Heat Index 101 °F
Dew Point 76 °F
Humidity 63%
Rainfall 0.00 in
Snow Depth Not available.
5:57 AM 7:50 PM
Waxing Gibbous, 79% visible
METAR KGZH 222053Z AUTO 26007KT 10SM CLR 32/24 A2977 RMK AO2 LTG DSNT SW AND W SLP076 60000 T03220244 56015
Pressure 29.76 in
Visibility 10.0 miles
Clouds Clear
Heat Index 101 °F
Dew Point 76 °F
Humidity 63%
Rainfall 0.00 in
Snow Depth Not available.
5:57 AM 7:50 PM
Waxing Gibbous, 79% visible
METAR KGZH 222053Z AUTO 26007KT 10SM CLR 32/24 A2977 RMK AO2 LTG DSNT SW AND W SLP076 60000 T03220244 56015

Get Your Daily Forecast Email!

Thanks for signing up!

Be on the lookout for a verification email in your inbox.

You'll start receiving severe weather alerts in your inbox..

×

10-Day Weather Forecast

Almanac

Astronomy

Jul. 22, 2018 Rise Set
Actual Time
Civil Twilight
Nautical Twilight
Astronomical Twilight
Moon
Length of Visible Light
Length of Day
Tomorrow will be .
, % of the Moon is Illuminated

Today's Extremes

State Highs State Lows

Community

WunderPhotos

Category 6

Welcome to Category 6. This is the collective home for Weather Underground's featured writeups by Dr. Jeff Masters (right), Bob Henson (left), Chris Burt, and other regular contributors.

Nearby

Air Quality

  Air Quality AQ Index Pollutant
Not available.

Snow Depth

Station Depth Elevation

Earthquake Activity

City Distance Mag. Time & Date
Minimum magnitude displayed is 2.5.

Coastal Water Temperatures

Place Temperature

Stations

Nearby Weather Stations

Station Location Temp. Windchill Dew Point Humidity Wind Precip. Elev Updated Type
                   

Watches & Warnings

Severe Thunderstorm Watch
Issued: 3:53 PM CDT Jul. 22, 2018 – National Weather Service

Severe Thunderstorm Watch 304 remains in effect until 700 PM CDT
for the following locations


Al
. Alabama counties included are

Baldwin Butler Clarke
Conecuh Covington Crenshaw
Escambia Mobile Monroe
Washington Wilcox